Time;durP1;ratioP1;P1;durP2;ratioP2;P2;SDS_P1;SDS_P2;PMS_P1;PMS_P2;Temp;Humidity;BMP_temperature;BMP_pressure;BME280_temperature;BME280_humidity;BME280_pressure;Samples;Min_cycle;Max_cycle;Signal;HPM_P1;HPM_P2
2022/01/13 00:01:57;;;;;;;;;41.50;32.25;;;;;6.78;67.49;103981.53;5061934;28;45552;-86
2022/01/13 00:04:23;;;;;;;;;41.25;27.75;;;;;6.79;67.58;103983.31;5076114;28;46072;-85
2022/01/13 00:06:49;;;;;;;;;38.25;31.50;;;;;6.77;67.17;103979.75;5071789;28;46002;-85
2022/01/13 00:09:16;;;;;;;;;40.50;29.50;;;;;6.76;67.36;103973.66;5061945;28;45224;-86
2022/01/13 00:11:42;;;;;;;;;38.75;30.75;;;;;6.78;67.34;103976.31;5061178;28;45425;-85
2022/01/13 00:19:31;;;;;;;;;42.00;33.25;;;;;6.82;67.76;103967.72;5061718;28;45379;-83
2022/01/13 00:22:43;;;;;;;;;40.25;31.25;;;;;6.79;67.43;103963.28;5061236;27;45262;-84
2022/01/13 00:24:37;;;;;;;;;37.00;28.25;;;;;6.83;67.20;103966.91;5058166;28;46250;-85
2022/01/13 00:27:10;;;;;;;;;37.00;28.75;;;;;6.83;67.72;103973.03;5071098;28;45453;-83
2022/01/13 00:29:39;;;;;;;;;34.00;31.50;;;;;6.82;67.20;103966.00;5074474;28;45282;-84
2022/01/13 00:32:04;;;;;;;;;38.50;31.75;;;;;6.84;67.41;103964.31;5081642;28;45476;-84
2022/01/13 00:34:30;;;;;;;;;41.50;31.50;;;;;6.84;67.40;103958.22;5064793;28;46437;-84
2022/01/13 00:36:55;;;;;;;;;37.50;29.25;;;;;6.84;67.14;103971.31;5077831;28;45405;-84
2022/01/13 00:39:21;;;;;;;;;39.25;25.50;;;;;6.85;67.13;103966.13;5081620;28;45350;-84
2022/01/13 00:41:46;;;;;;;;;28.50;27.25;;;;;6.85;67.35;103976.59;5081080;28;45334;-84
2022/01/13 00:44:11;;;;;;;;;31.75;28.75;;;;;6.83;67.77;103959.06;5081380;28;46330;-84
2022/01/13 00:46:42;;;;;;;;;26.50;23.50;;;;;6.80;67.07;103966.78;5072821;28;45387;-84
2022/01/13 00:49:09;;;;;;;;;28.00;25.50;;;;;6.79;67.78;103970.25;5061273;28;45473;-84
2022/01/13 00:51:35;;;;;;;;;30.50;25.25;;;;;6.78;67.76;103964.13;5060912;28;45530;-84
2022/01/13 00:54:05;;;;;;;;;29.00;25.00;;;;;6.81;67.52;103960.72;5060987;28;45382;-84
2022/01/13 00:56:32;;;;;;;;;36.50;28.00;;;;;6.82;67.58;103958.16;5072262;28;45374;-84
2022/01/13 00:58:58;;;;;;;;;31.50;28.50;;;;;6.84;67.24;103960.84;5061748;27;45457;-88
2022/01/13 01:01:24;;;;;;;;;36.00;27.25;;;;;6.86;67.36;103961.78;5060925;28;46112;-82
2022/01/13 01:03:49;;;;;;;;;40.50;30.25;;;;;6.83;67.60;103964.28;5070930;28;45353;-86
2022/01/13 01:06:14;;;;;;;;;32.50;27.75;;;;;6.80;68.28;103964.16;5072006;28;45756;-87
2022/01/13 01:08:40;;;;;;;;;33.00;25.25;;;;;6.74;67.97;103955.28;5080262;27;45227;-85
2022/01/13 01:11:06;;;;;;;;;33.25;29.75;;;;;6.74;68.16;103964.88;5080913;28;45499;-84
2022/01/13 01:13:34;;;;;;;;;30.50;24.50;;;;;6.76;67.88;103968.41;5065320;28;45495;-85
2022/01/13 01:16:05;;;;;;;;;34.25;27.75;;;;;6.77;68.12;103969.28;5060810;28;45367;-85
2022/01/13 01:26:38;;;;;;;;;26.75;21.75;;;;;6.79;67.72;103967.63;5060380;28;45523;-85
2022/01/13 01:31:38;;;;;;;;;27.75;23.75;;;;;6.77;67.73;103969.28;5068947;27;45473;-85
2022/01/13 01:36:32;;;;;;;;;26.75;20.50;;;;;6.74;67.91;103959.63;5063396;28;45495;-85
2022/01/13 01:38:59;;;;;;;;;32.75;27.50;;;;;6.73;68.08;103961.34;5060648;28;45546;-84
2022/01/13 01:41:26;;;;;;;;;28.25;23.00;;;;;6.70;68.64;103966.47;5068884;28;45472;-84
2022/01/13 01:43:55;;;;;;;;;24.50;19.25;;;;;6.68;68.04;103964.63;5060142;28;45352;-84
2022/01/13 01:46:20;;;;;;;;;29.00;27.00;;;;;6.64;68.38;103968.88;5070409;28;45965;-84
2022/01/13 01:48:45;;;;;;;;;30.25;22.75;;;;;6.62;68.25;103962.66;5061090;27;45302;-84
2022/01/13 01:51:11;;;;;;;;;24.00;19.25;;;;;6.60;68.25;103966.97;5067583;28;45248;-87
2022/01/13 01:53:36;;;;;;;;;23.75;19.75;;;;;6.56;68.42;103960.75;5060869;27;46281;-87
2022/01/13 01:56:02;;;;;;;;;28.00;19.50;;;;;6.52;68.63;103959.72;5059976;28;45259;-86
2022/01/13 01:58:28;;;;;;;;;33.75;24.00;;;;;6.49;68.19;103970.09;5064306;28;45669;-87
2022/01/13 02:00:54;;;;;;;;;26.00;23.50;;;;;6.46;68.34;103974.31;5068596;28;47325;-87
2022/01/13 02:03:22;;;;;;;;;24.50;20.00;;;;;6.48;68.41;103973.53;5064280;27;46193;-88
2022/01/13 02:05:48;;;;;;;;;29.75;19.75;;;;;6.49;68.49;103972.72;5059773;28;45489;-89
2022/01/13 02:08:14;;;;;;;;;20.00;17.75;;;;;6.52;68.73;103978.03;5067045;28;45251;-87
2022/01/13 02:10:39;;;;;;;;;19.00;14.00;;;;;6.51;68.11;103977.97;5077324;28;46897;-87
2022/01/13 02:13:09;;;;;;;;;23.75;18.50;;;;;6.48;68.59;103983.97;5071048;28;48155;-87
2022/01/13 02:15:46;;;;;;;;;28.00;19.75;;;;;6.52;68.33;103985.88;5076410;27;45396;-87
2022/01/13 02:18:12;;;;;;;;;24.25;17.50;;;;;6.55;68.57;103984.19;5065619;28;45436;-88
2022/01/13 02:20:43;;;;;;;;;20.00;17.00;;;;;6.50;68.57;103977.09;5059744;28;45345;-87
2022/01/13 02:23:08;;;;;;;;;22.00;19.00;;;;;6.46;68.57;103982.16;5072943;28;48367;-88
2022/01/13 02:25:34;;;;;;;;;16.75;13.50;;;;;6.41;68.05;103985.50;5074000;27;45488;-88
2022/01/13 02:27:59;;;;;;;;;18.75;14.00;;;;;6.39;68.19;103988.88;5077728;27;45444;-88
2022/01/13 02:30:24;;;;;;;;;19.25;17.50;;;;;6.38;68.34;103993.22;5059520;28;45446;-89
2022/01/13 02:32:50;;;;;;;;;18.25;15.75;;;;;6.40;68.09;103995.88;5060260;28;47938;-88
2022/01/13 02:35:15;;;;;;;;;19.25;15.75;;;;;6.37;68.17;103985.31;5059745;28;45644;-82
2022/01/13 02:37:40;;;;;;;;;25.00;17.50;;;;;6.38;68.56;103987.97;5059744;28;45346;-89
2022/01/13 02:40:06;;;;;;;;;30.25;21.25;;;;;6.45;68.48;103982.97;5057969;28;46073;-84
2022/01/13 02:42:33;;;;;;;;;17.25;15.75;;;;;6.44;68.49;103976.88;5059638;28;46274;-85
2022/01/13 02:45:03;;;;;;;;;16.00;14.25;;;;;6.50;68.12;103982.31;5063080;28;45806;-87
2022/01/13 02:50:11;;;;;;;;;18.50;17.00;;;;;6.55;67.85;103969.41;5079478;27;45377;-85
2022/01/13 02:52:36;;;;;;;;;21.50;17.75;;;;;6.57;68.19;103972.09;5072165;28;45382;-86
2022/01/13 02:55:06;;;;;;;;;17.75;15.75;;;;;6.56;68.05;103967.69;5063187;28;45207;-86
2022/01/13 02:57:32;;;;;;;;;16.75;15.50;;;;;6.56;67.68;103965.06;5072925;28;45416;-86
2022/01/13 02:59:58;;;;;;;;;19.75;18.00;;;;;6.58;67.88;103968.63;5079665;28;45450;-85
2022/01/13 03:02:29;;;;;;;;;17.75;16.50;;;;;6.55;68.00;103976.34;5071804;28;46418;-86
2022/01/13 03:04:54;;;;;;;;;18.75;15.75;;;;;6.51;67.79;103963.19;5073313;28;45477;-88
2022/01/13 03:07:21;;;;;;;;;22.25;18.00;;;;;6.53;68.02;103971.09;5058838;28;45409;-88
2022/01/13 03:09:46;;;;;;;;;20.50;15.50;;;;;6.53;67.47;103973.69;5073064;28;45327;-87
2022/01/13 03:12:12;;;;;;;;;17.75;16.25;;;;;6.52;68.02;103977.13;5082403;27;45818;-88
2022/01/13 03:14:38;;;;;;;;;18.75;15.50;;;;;6.49;67.34;103979.66;5068633;28;45414;-88
2022/01/13 03:17:03;;;;;;;;;19.75;14.00;;;;;6.41;67.73;103971.53;5062543;28;45327;-87
2022/01/13 03:19:28;;;;;;;;;14.25;13.50;;;;;6.37;67.71;103967.91;5070515;28;46824;-84
2022/01/13 03:21:54;;;;;;;;;22.00;17.25;;;;;6.37;67.52;103973.13;5082622;27;46325;-84
2022/01/13 03:24:19;;;;;;;;;18.50;14.50;;;;;6.35;67.42;103972.19;5071177;28;45203;-85
2022/01/13 03:26:47;;;;;;;;;23.00;20.50;;;;;6.36;67.63;103967.84;5062124;28;45466;-85
2022/01/13 03:31:38;;;;;;;;;16.25;15.25;;;;;6.35;67.42;103964.34;5062477;28;46050;-85
2022/01/13 03:34:04;;;;;;;;;19.25;16.25;;;;;6.35;67.46;103966.94;5066299;28;45378;-89
2022/01/13 03:36:29;;;;;;;;;19.75;16.75;;;;;6.34;67.43;103962.56;5073166;28;45431;-85
2022/01/13 03:38:55;;;;;;;;;21.25;18.00;;;;;6.37;67.43;103964.41;5087335;27;46453;-85
2022/01/13 03:41:22;;;;;;;;;19.25;16.00;;;;;6.37;67.17;103965.28;5082522;27;45337;-85
2022/01/13 03:43:51;;;;;;;;;22.25;17.75;;;;;6.34;67.18;103969.53;5075468;28;45751;-85
2022/01/13 03:46:17;;;;;;;;;12.50;9.75;;;;;6.33;67.17;103966.00;5072066;28;45318;-85
2022/01/13 03:48:43;;;;;;;;;18.00;14.75;;;;;6.34;67.51;103966.91;5065853;27;45504;-85
2022/01/13 03:51:09;;;;;;;;;18.75;16.75;;;;;6.32;67.00;103966.88;5060835;28;47841;-85
2022/01/13 03:54:09;;;;;;;;;17.00;16.50;;;;;6.32;67.03;103968.56;5075895;28;45417;-85
2022/01/13 03:56:53;;;;;;;;;15.00;11.00;;;;;6.25;66.85;103970.03;5047644;28;45346;-85
2022/01/13 03:59:46;;;;;;;;;16.75;15.75;;;;;6.17;67.26;103972.41;5060540;28;45547;-87
2022/01/13 04:02:15;;;;;;;;;18.00;17.25;;;;;6.16;67.31;103970.59;5061644;28;46460;-87
2022/01/13 04:04:43;;;;;;;;;22.75;17.50;;;;;6.10;67.27;103963.41;5061755;28;45274;-87
2022/01/13 04:07:21;;;;;;;;;22.25;17.00;;;;;6.12;67.31;103963.50;5061610;28;45419;-88
2022/01/13 04:09:46;;;;;;;;;16.25;13.25;;;;;6.11;67.27;103967.81;5064244;28;45548;-88
2022/01/13 04:12:13;;;;;;;;;20.67;16.67;;;;;6.10;67.43;103970.38;5064512;28;48020;-88
2022/01/13 04:17:19;;;;;;;;;19.00;15.75;;;;;6.02;67.68;103963.09;5061623;28;45385;-83
2022/01/13 04:19:46;;;;;;;;;22.00;14.50;;;;;6.05;67.61;103963.22;5063016;28;45389;-90
2022/01/13 04:22:12;;;;;;;;;19.75;16.50;;;;;6.10;67.53;103966.03;5073740;28;46931;-81
2022/01/13 04:24:42;;;;;;;;;23.50;18.25;;;;;6.08;67.29;103967.69;5061743;28;45758;-87
2022/01/13 04:27:09;;;;;;;;;18.00;15.00;;;;;6.06;67.28;103969.31;5061094;28;45269;-87
2022/01/13 04:29:37;;;;;;;;;19.00;15.25;;;;;6.05;67.46;103972.78;5064545;28;45767;-87
2022/01/13 04:32:04;;;;;;;;;15.75;15.00;;;;;6.05;67.40;103967.56;5061269;28;45406;-88
2022/01/13 04:34:30;;;;;;;;;18.75;18.25;;;;;6.04;67.10;103966.66;5061378;27;45422;-87
2022/01/13 04:36:58;;;;;;;;;16.75;15.50;;;;;5.99;67.39;103960.38;5061535;28;45224;-88
2022/01/13 04:39:24;;;;;;;;;17.25;15.75;;;;;6.01;67.30;103961.31;5063394;28;45474;-84
2022/01/13 04:41:52;;;;;;;;;24.00;16.75;;;;;5.97;67.44;103955.06;5061030;28;45558;-85
2022/01/13 04:44:19;;;;;;;;;23.75;16.75;;;;;5.95;67.44;103956.75;5061046;28;45421;-85
2022/01/13 04:46:46;;;;;;;;;19.25;16.25;;;;;5.88;67.40;103949.50;5062412;28;45234;-84
2022/01/13 04:49:12;;;;;;;;;20.50;18.00;;;;;5.87;67.25;103958.19;5063190;28;45407;-83
2022/01/13 04:51:39;;;;;;;;;19.25;18.25;;;;;5.83;67.52;103956.25;5060893;28;45549;-84
2022/01/13 04:54:05;;;;;;;;;23.50;18.75;;;;;5.80;67.30;103961.38;5060907;28;45444;-84
2022/01/13 04:56:39;;;;;;;;;22.00;17.00;;;;;5.79;67.59;103963.09;5060923;28;45334;-84
2022/01/13 04:59:06;;;;;;;;;15.75;14.75;;;;;5.80;67.85;103967.47;5061383;28;45664;-84
2022/01/13 05:01:32;;;;;;;;;20.50;16.00;;;;;5.85;67.74;103968.53;5060772;28;45410;-84
2022/01/13 05:03:57;;;;;;;;;14.25;13.00;;;;;5.88;67.70;103975.59;5060909;28;45340;-85
2022/01/13 05:06:23;;;;;;;;;15.25;15.25;;;;;5.92;67.70;103976.63;5077099;28;45338;-84
2022/01/13 05:08:49;;;;;;;;;18.75;16.75;;;;;5.96;67.63;103968.97;5074029;27;45335;-85
2022/01/13 05:11:16;;;;;;;;;18.75;14.75;;;;;5.94;67.51;103970.66;5076341;27;47242;-83
2022/01/13 05:13:41;;;;;;;;;17.50;14.75;;;;;5.95;67.55;103971.53;5080906;28;45779;-83
2022/01/13 05:16:10;;;;;;;;;16.00;15.25;;;;;5.97;67.67;103983.78;5081063;28;45289;-83
2022/01/13 05:21:05;;;;;;;;;30.00;23.25;;;;;5.95;67.09;103977.63;5060353;28;45447;-84
2022/01/13 05:23:31;;;;;;;;;39.25;28.25;;;;;5.92;67.30;103971.41;5060512;28;45239;-83
2022/01/13 05:25:56;;;;;;;;;17.25;17.00;;;;;5.90;67.39;103962.63;5060516;28;45267;-83
2022/01/13 05:28:22;;;;;;;;;21.75;15.25;;;;;5.90;67.51;103971.34;5062658;28;45622;-86
2022/01/13 05:30:47;;;;;;;;;22.25;17.75;;;;;5.89;67.83;103972.19;5075540;28;46127;-85
2022/01/13 05:33:13;;;;;;;;;16.75;15.75;;;;;5.88;67.61;103977.34;5080072;28;45285;-85
2022/01/13 05:35:38;;;;;;;;;15.50;13.25;;;;;5.80;67.20;103967.47;5080671;28;45484;-85
2022/01/13 05:38:08;;;;;;;;;21.00;14.00;;;;;5.80;67.33;103977.91;5072882;28;46090;-86
2022/01/13 05:40:38;;;;;;;;;23.75;15.00;;;;;5.77;67.74;103969.97;5072845;28;45538;-86
2022/01/13 05:43:04;;;;;;;;;16.75;14.50;;;;;5.78;67.51;103966.53;5080290;28;45481;-84
2022/01/13 05:45:33;;;;;;;;;15.50;11.75;;;;;5.81;67.52;103963.16;5080693;28;45408;-84
2022/01/13 05:48:00;;;;;;;;;16.25;12.25;;;;;5.81;67.57;103957.91;5064741;28;45582;-84
2022/01/13 05:50:27;;;;;;;;;16.75;13.25;;;;;5.80;67.52;103956.16;5060149;28;45493;-84
2022/01/13 05:52:52;;;;;;;;;20.50;13.25;;;;;5.79;67.51;103955.25;5060109;28;45821;-84
2022/01/13 05:55:18;;;;;;;;;16.75;15.75;;;;;5.81;67.37;103952.69;5060277;28;45418;-84
2022/01/13 05:57:44;;;;;;;;;17.00;14.75;;;;;5.83;67.56;103962.38;5065785;28;45308;-85
2022/01/13 06:00:12;;;;;;;;;19.00;16.00;;;;;5.80;67.32;103959.63;5060049;28;45350;-83
2022/01/13 06:02:38;;;;;;;;;18.00;13.00;;;;;5.80;67.39;103957.03;5075672;28;45792;-87
2022/01/13 06:05:05;;;;;;;;;15.75;13.00;;;;;5.78;67.31;103953.47;5079304;28;45339;-80
2022/01/13 06:07:30;;;;;;;;;23.50;21.50;;;;;5.82;67.31;103960.63;5069298;28;47002;-77
2022/01/13 06:09:56;;;;;;;;;39.00;28.25;;;;;5.76;67.59;103962.06;5074907;28;45451;-78
2022/01/13 06:12:32;;;;;;;;;23.75;16.75;;;;;5.79;67.37;103963.09;5079915;27;45382;-81
2022/01/13 06:14:58;;;;;;;;;27.25;22.75;;;;;5.79;67.47;103960.50;5080358;28;45228;-82
2022/01/13 06:17:23;;;;;;;;;30.75;25.00;;;;;5.77;67.43;103959.53;5060746;28;45423;-81
2022/01/13 06:19:48;;;;;;;;;21.00;17.50;;;;;5.78;67.69;103963.91;5064723;28;45509;-81
2022/01/13 06:22:14;;;;;;;;;18.50;17.50;;;;;5.75;67.64;103963.81;5079315;27;45403;-80
2022/01/13 06:24:39;;;;;;;;;16.75;16.00;;;;;5.74;67.28;103964.63;5080123;27;45716;-79
2022/01/13 06:27:04;;;;;;;;;19.00;17.00;;;;;5.76;67.41;103968.19;5067985;28;46965;-80
2022/01/13 06:29:30;;;;;;;;;19.75;14.00;;;;;5.78;67.79;103965.66;5067158;27;46283;-79
2022/01/13 06:31:56;;;;;;;;;21.75;19.25;;;;;5.80;67.64;103971.81;5059247;28;45276;-79
2022/01/13 06:34:22;;;;;;;;;17.25;15.00;;;;;5.84;67.58;103968.50;5059644;28;45381;-78
2022/01/13 06:36:47;;;;;;;;;17.50;14.25;;;;;5.82;67.64;103965.84;5070340;28;45318;-78
2022/01/13 06:39:12;;;;;;;;;17.00;13.75;;;;;5.84;67.45;103974.63;5066997;28;46578;-78
2022/01/13 06:41:40;;;;;;;;;17.50;15.25;;;;;5.82;67.24;103965.84;5074381;28;45497;-78
2022/01/13 06:44:06;;;;;;;;;14.50;11.75;;;;;5.84;67.50;103965.88;5075723;27;45318;-79
2022/01/13 06:46:32;;;;;;;;;15.75;13.50;;;;;5.87;67.43;103978.16;5073782;28;45567;-79
2022/01/13 06:48:57;;;;;;;;;14.00;12.00;;;;;5.84;66.98;103961.56;5064421;28;46423;-79
2022/01/13 06:51:23;;;;;;;;;14.00;12.50;;;;;5.87;67.23;103962.50;5063547;28;45224;-80
2022/01/13 06:53:48;;;;;;;;;15.00;14.00;;;;;5.93;67.14;103967.94;5065357;28;45484;-80
2022/01/13 06:56:13;;;;;;;;;18.25;14.00;;;;;5.94;67.38;103964.53;5074695;27;45536;-78
2022/01/13 06:58:39;;;;;;;;;23.00;16.00;;;;;5.94;67.01;103968.03;5066430;28;45527;-80
2022/01/13 07:01:05;;;;;;;;;16.50;16.50;;;;;5.94;67.05;103961.91;5062852;28;45389;-81
2022/01/13 07:03:30;;;;;;;;;23.00;17.25;;;;;5.90;67.01;103962.63;5063023;28;45366;-81
2022/01/13 07:05:55;;;;;;;;;22.00;17.75;;;;;5.87;66.99;103970.34;5064534;28;45400;-81
2022/01/13 07:08:21;;;;;;;;;23.75;17.50;;;;;5.83;67.24;103970.22;5064378;28;45396;-80
2022/01/13 07:10:46;;;;;;;;;19.50;17.50;;;;;5.79;67.06;103967.41;5070240;27;45425;-80
2022/01/13 07:13:12;;;;;;;;;22.00;17.00;;;;;5.80;67.44;103966.59;5065719;28;45395;-83
2022/01/13 07:15:37;;;;;;;;;20.25;15.75;;;;;5.78;67.40;103974.34;5061680;28;45411;-81
2022/01/13 07:18:03;;;;;;;;;14.75;13.75;;;;;5.74;67.32;103973.34;5074278;28;45413;-81
2022/01/13 07:20:28;;;;;;;;;20.75;15.25;;;;;5.74;67.18;103972.47;5061976;28;45730;-81
2022/01/13 07:22:54;;;;;;;;;17.50;15.00;;;;;5.75;67.48;103976.88;5067120;28;45265;-81
2022/01/13 07:25:20;;;;;;;;;20.25;15.50;;;;;5.72;67.65;103972.41;5061766;28;45544;-80
2022/01/13 07:27:45;;;;;;;;;21.75;16.00;;;;;5.74;67.40;103983.81;5062822;28;46136;-80
2022/01/13 07:30:12;;;;;;;;;23.50;15.75;;;;;5.76;67.21;103986.47;5062754;28;45394;-80
2022/01/13 07:32:38;;;;;;;;;16.75;16.00;;;;;5.76;67.35;103983.84;5064811;28;45310;-80
2022/01/13 07:35:04;;;;;;;;;18.75;15.75;;;;;5.78;67.62;103979.56;5065680;28;45500;-77
2022/01/13 07:37:30;;;;;;;;;18.75;14.75;;;;;5.80;67.44;103982.28;5081106;28;46462;-78
2022/01/13 07:39:55;;;;;;;;;26.00;19.00;;;;;5.81;67.23;103976.19;5072050;27;45381;-78
2022/01/13 07:42:23;;;;;;;;;21.50;17.25;;;;;5.80;67.77;103979.66;5080953;27;45364;-78
2022/01/13 07:44:48;;;;;;;;;26.50;24.75;;;;;5.82;67.82;103980.59;5078700;27;45346;-78
2022/01/13 07:47:14;;;;;;;;;23.75;17.75;;;;;5.87;67.56;103975.56;5079748;28;46224;-78
2022/01/13 07:49:39;;;;;;;;;20.50;16.50;;;;;5.92;67.48;103977.53;5081401;27;45287;-78
2022/01/13 07:52:05;;;;;;;;;21.50;18.75;;;;;5.94;67.42;103982.81;5081411;28;45167;-78
2022/01/13 07:54:31;;;;;;;;;31.25;20.00;;;;;5.98;67.67;103984.69;5080465;27;45258;-78
2022/01/13 07:56:58;;;;;;;;;21.00;18.50;;;;;6.01;67.14;103974.38;5080834;28;45291;-78
2022/01/13 07:59:28;;;;;;;;;24.50;18.00;;;;;6.02;67.26;103970.94;5082200;27;45710;-78
2022/01/13 08:01:55;;;;;;;;;26.00;19.25;;;;;6.06;67.44;103970.22;5081071;27;45424;-78
2022/01/13 08:04:21;;;;;;;;;25.75;17.25;;;;;6.07;67.40;103965.94;5080316;28;45551;-78
2022/01/13 08:06:47;;;;;;;;;25.75;20.50;;;;;6.06;67.36;103967.59;5068891;28;45287;-78
2022/01/13 08:09:12;;;;;;;;;22.75;18.25;;;;;6.05;67.23;103967.56;5075946;27;45413;-77
2022/01/13 08:11:37;;;;;;;;;22.50;19.75;;;;;6.05;67.21;103973.66;5063129;27;45226;-77
2022/01/13 08:14:03;;;;;;;;;18.75;13.00;;;;;6.05;66.91;103967.56;5061542;28;45288;-77
2022/01/13 08:16:33;;;;;;;;;20.50;16.00;;;;;6.03;67.15;103970.09;5066596;28;45355;-77
2022/01/13 08:21:42;;;;;;;;;21.25;15.75;;;;;5.97;67.25;103968.13;5061607;28;45531;-77
2022/01/13 08:24:07;;;;;;;;;21.00;15.50;;;;;5.97;67.40;103967.25;5070259;28;46337;-76
2022/01/13 08:26:33;;;;;;;;;20.33;17.67;;;;;5.98;66.92;103971.63;5061061;28;45695;-76
2022/01/13 08:28:58;;;;;;;;;20.50;17.75;;;;;5.99;66.93;103964.69;5064142;28;45425;-76
2022/01/13 08:31:24;;;;;;;;;26.00;18.25;;;;;5.99;66.97;103957.75;5070298;28;45216;-76
2022/01/13 08:33:49;;;;;;;;;24.25;19.00;;;;;6.02;67.11;103968.34;5061200;28;45215;-76
2022/01/13 08:36:15;;;;;;;;;20.50;15.25;;;;;6.02;67.01;103970.06;5061233;28;45259;-77
2022/01/13 08:38:40;;;;;;;;;17.00;17.00;;;;;6.02;66.87;103960.50;5061182;28;45193;-77
2022/01/13 08:41:06;;;;;;;;;26.00;19.00;;;;;6.08;67.00;103963.38;5064100;28;45262;-77
2022/01/13 08:43:33;;;;;;;;;21.00;14.50;;;;;6.10;67.13;103962.53;5079078;27;45238;-77
2022/01/13 08:45:58;;;;;;;;;16.25;15.25;;;;;6.13;67.20;103955.69;5066280;28;45570;-77
2022/01/13 08:48:24;;;;;;;;;27.25;19.50;;;;;6.13;66.50;103955.69;5061143;28;45524;-77
2022/01/13 08:50:50;;;;;;;;;26.75;18.50;;;;;6.17;66.57;103964.56;5060934;28;45330;-77
2022/01/13 08:53:17;;;;;;;;;22.00;18.00;;;;;6.14;66.94;103951.38;5065091;28;45295;-77
2022/01/13 08:55:42;;;;;;;;;23.25;20.00;;;;;6.20;67.05;103962.03;5068156;27;46488;-77
2022/01/13 08:58:08;;;;;;;;;26.00;21.00;;;;;6.19;66.73;103969.00;5059464;28;45425;-77
2022/01/13 09:00:36;;;;;;;;;19.25;16.50;;;;;6.22;66.93;103969.97;5067487;28;45757;-77
2022/01/13 09:03:06;;;;;;;;;22.00;19.50;;;;;6.16;66.36;103960.16;5061280;28;45223;-77
2022/01/13 09:05:33;;;;;;;;;20.75;17.50;;;;;6.16;66.86;103975.81;5060222;28;45294;-77
2022/01/13 09:07:59;;;;;;;;;29.00;22.25;;;;;6.16;67.15;103971.50;5059715;28;45207;-77
2022/01/13 09:10:24;;;;;;;;;22.75;21.00;;;;;6.18;66.96;103968.94;5074612;28;45786;-77
2022/01/13 09:12:49;;;;;;;;;26.00;20.25;;;;;6.17;66.99;103972.41;5065908;28;45278;-77
2022/01/13 09:15:25;;;;;;;;;27.00;20.75;;;;;6.16;66.38;103973.22;5060638;28;45410;-77
2022/01/13 09:17:52;;;;;;;;;26.25;18.75;;;;;6.13;66.78;103973.09;5072611;28;45803;-77
2022/01/13 09:20:18;;;;;;;;;24.50;19.50;;;;;6.11;67.20;103985.19;5065871;28;45232;-76
2022/01/13 09:22:44;;;;;;;;;24.25;21.50;;;;;6.11;66.65;103982.59;5069399;28;45443;-76
2022/01/13 09:25:11;;;;;;;;;22.50;19.25;;;;;6.11;66.59;103987.81;5060493;28;45492;-77
2022/01/13 09:27:40;;;;;;;;;26.50;24.50;;;;;6.12;66.74;103994.84;5065393;28;45343;-76
2022/01/13 09:30:07;;;;;;;;;20.50;19.00;;;;;6.07;66.25;104005.97;5062003;27;45225;-77
2022/01/13 09:32:32;;;;;;;;;27.25;21.75;;;;;6.02;66.42;103997.06;5061489;27;45572;-76
2022/01/13 09:34:58;;;;;;;;;24.00;19.00;;;;;6.05;66.65;104002.38;5060382;28;45197;-76
2022/01/13 09:37:24;;;;;;;;;26.75;23.50;;;;;6.03;66.73;104006.66;5065800;28;45362;-77
2022/01/13 09:39:49;;;;;;;;;22.25;19.50;;;;;6.05;66.52;104006.75;5069556;28;45345;-76
2022/01/13 09:42:16;;;;;;;;;31.75;23.75;;;;;6.05;66.43;104015.44;5059975;28;45420;-76
2022/01/13 09:44:42;;;;;;;;;20.00;17.50;;;;;6.02;65.83;104010.13;5060313;28;45411;-76
2022/01/13 09:47:07;;;;;;;;;33.25;27.25;;;;;6.01;66.16;104008.31;5066897;28;45509;-76
2022/01/13 09:49:33;;;;;;;;;24.00;22.00;;;;;5.97;66.04;104012.53;5065162;28;45468;-76
2022/01/13 09:51:59;;;;;;;;;26.00;20.25;;;;;6.00;66.37;104014.38;5071990;28;45424;-76
2022/01/13 09:54:25;;;;;;;;;26.50;23.25;;;;;6.00;66.30;104014.38;5060368;28;46274;-76
2022/01/13 09:56:50;;;;;;;;;27.75;23.00;;;;;5.99;66.08;104019.53;5059918;28;45224;-76
2022/01/13 09:59:15;;;;;;;;;32.25;25.25;;;;;5.97;66.47;104024.72;5069977;28;45548;-77
2022/01/13 10:01:41;;;;;;;;;26.00;21.00;;;;;6.01;66.58;104024.00;5065783;28;45648;-77
2022/01/13 10:04:06;;;;;;;;;28.25;21.75;;;;;5.99;66.80;104020.44;5060315;28;45361;-77
2022/01/13 10:06:41;;;;;;;;;29.00;21.00;;;;;5.97;66.69;104012.53;5069521;28;45434;-77
2022/01/13 10:09:07;;;;;;;;;26.50;22.75;;;;;5.99;66.97;104009.09;5069659;28;45215;-77
2022/01/13 10:11:36;;;;;;;;;27.00;22.75;;;;;6.02;66.91;104015.34;5078181;28;45551;-77
2022/01/13 10:14:10;;;;;;;;;34.00;26.00;;;;;6.06;67.12;104013.72;5070453;28;45414;-77
2022/01/13 10:17:07;;;;;;;;;31.25;23.25;;;;;6.10;66.83;104014.78;5068966;27;45510;-77
2022/01/13 10:19:44;;;;;;;;;32.75;28.25;;;;;6.14;66.63;104014.06;5065074;28;45673;-77
2022/01/13 10:22:14;;;;;;;;;26.50;23.50;;;;;6.20;66.53;104022.13;5059594;28;45277;-77
2022/01/13 10:24:46;;;;;;;;;32.00;25.75;;;;;6.19;66.52;104012.53;5069039;28;45522;-77
2022/01/13 10:27:13;;;;;;;;;27.00;25.25;;;;;6.23;66.72;104026.56;5068232;28;45219;-78
2022/01/13 10:29:49;;;;;;;;;31.00;25.00;;;;;6.19;66.45;104017.75;5061549;28;45382;-77
2022/01/13 10:32:37;;;;;;;;;26.25;19.50;;;;;6.16;66.32;104008.06;5071480;28;45399;-77
2022/01/13 10:35:05;;;;;;;;;27.50;24.75;;;;;6.18;66.29;104015.94;5059537;28;46055;-78
2022/01/13 10:37:36;;;;;;;;;35.00;24.50;;;;;6.18;66.58;104003.78;5059818;28;45351;-79
2022/01/13 10:40:07;;;;;;;;;30.00;24.00;;;;;6.23;66.37;104009.19;5059719;28;45357;-78
2022/01/13 10:45:14;;;;;;;;;31.25;24.00;;;;;6.24;66.62;104007.47;5059365;28;45875;-80
2022/01/13 10:47:40;;;;;;;;;35.00;29.50;;;;;6.24;66.18;104010.97;5072364;28;45501;-79
2022/01/13 10:50:09;;;;;;;;;30.75;28.75;;;;;6.25;66.19;104004.00;5059361;28;45234;-79
2022/01/13 10:52:35;;;;;;;;;30.75;26.50;;;;;6.28;66.31;104005.03;5059217;28;45486;-79
2022/01/13 10:55:03;;;;;;;;;36.50;33.00;;;;;6.28;66.33;104007.63;5059265;28;45362;-79
2022/01/13 10:57:30;;;;;;;;;27.00;24.50;;;;;6.28;66.38;104004.13;5059223;28;45861;-79
2022/01/13 10:59:56;;;;;;;;;31.25;23.50;;;;;6.32;66.40;103999.94;5059390;28;45185;-78
2022/01/13 11:02:23;;;;;;;;;38.50;30.75;;;;;6.30;66.03;103995.53;5059493;28;45495;-78
2022/01/13 11:04:48;;;;;;;;;32.25;23.00;;;;;6.32;66.42;104002.53;5059005;28;45463;-78
2022/01/13 11:07:18;;;;;;;;;39.50;29.75;;;;;6.30;65.94;104005.97;5058877;28;45568;-78
2022/01/13 11:09:58;;;;;;;;;37.50;34.75;;;;;6.26;65.59;103998.88;5058350;28;45436;-78
2022/01/13 11:12:34;;;;;;;;;34.75;28.50;;;;;6.27;66.18;103997.16;5058959;28;45390;-79
2022/01/13 11:15:04;;;;;;;;;37.25;34.25;;;;;6.26;66.09;103991.03;5059220;28;45427;-78
2022/01/13 11:17:30;;;;;;;;;32.50;26.50;;;;;6.27;65.75;103995.41;5059197;28;45239;-78
2022/01/13 11:19:56;;;;;;;;;38.50;32.00;;;;;6.25;65.97;103976.16;5059049;28;45175;-79
2022/01/13 11:22:22;;;;;;;;;29.50;26.75;;;;;6.26;66.04;103977.06;5058928;28;45349;-79
2022/01/13 11:24:49;;;;;;;;;35.75;27.75;;;;;6.25;65.78;103976.16;5058907;28;46322;-79
2022/01/13 11:27:17;;;;;;;;;32.75;26.75;;;;;6.26;66.18;103971.84;5058703;28;45962;-79
2022/01/13 11:29:45;;;;;;;;;36.75;29.00;;;;;6.32;65.64;103979.03;5073426;28;45371;-79
2022/01/13 11:32:11;;;;;;;;;27.50;26.00;;;;;6.29;66.05;103965.03;5082848;28;45144;-79
2022/01/13 11:34:38;;;;;;;;;36.00;30.75;;;;;6.33;65.97;103970.34;5081557;27;45427;-79
2022/01/13 11:37:04;;;;;;;;;29.75;25.00;;;;;6.32;65.75;103972.09;5082696;27;45801;-79
2022/01/13 11:39:41;;;;;;;;;28.25;24.50;;;;;6.33;65.32;103978.19;5082535;28;45360;-79
2022/01/13 11:42:09;;;;;;;;;24.50;24.00;;;;;6.30;65.33;103964.16;5082336;28;45467;-79
2022/01/13 11:44:36;;;;;;;;;30.50;24.50;;;;;6.35;65.50;103968.66;5081643;28;46162;-79
2022/01/13 11:47:08;;;;;;;;;32.25;25.25;;;;;6.37;65.42;103962.66;5074589;28;45924;-79
2022/01/13 11:52:27;;;;;;;;;26.75;24.25;;;;;6.36;65.27;103962.63;5061962;28;45409;-79
2022/01/13 11:54:52;;;;;;;;;28.00;24.25;;;;;6.35;65.45;103960.81;5062106;28;45355;-79